GW1985 Weather Reports


Display with metric or nautical units.
time (UTC)temp
F
wind
direction
speed
MPH
gust
MPH
rain 1hr
in
rain 24hr
in
rain mn
in
humidity
%
barometer
mb
20240414084655 51 324 1.0 1.0 0.00 0.00 0.00 69 1002.9
20240414084154 50 326 0.0 0.0 0.00 0.00 0.00 69 1002.6
20240414083652 50 326 0.0 0.0 0.00 0.00 0.00 70 1002.6
20240414083151 50 326 0.0 0.0 0.00 0.00 0.00 70 1002.6
20240414082646 50 326 0.0 0.0 0.00 0.00 0.00 68 1002.5
20240414082145 51 326 0.0 0.0 0.00 0.00 0.00 67 1002.5
20240414081645 51 326 0.0 0.0 0.00 0.00 0.00 65 1002.5
20240414081144 52 326 0.0 0.0 0.00 0.00 0.00 64 1002.4
20240414080644 53 326 0.0 0.0 0.00 0.00 0.00 63 1002.5
20240414080144 53 326 0.0 1.0 0.00 0.00 0.00 63 1002.4
20240414075642 53 328 1.0 1.0 0.00 0.00 0.00 61 1002.4
20240414075141 54 328 1.0 1.0 0.00 0.00 0.00 59 1002.2
20240414074640 54 335 1.0 1.0 0.00 0.00 0.00 59 1002.1
20240414074139 54 338 1.0 1.0 0.00 0.00 0.00 59 1002.1
20240414073639 54 339 2.0 2.0 0.00 0.00 0.00 59 1002.2
20240414073137 55 334 1.0 1.0 0.00 0.00 0.00 58 1002.2
20240414072636 55 335 1.0 1.0 0.00 0.00 0.00 57 1002.2
20240414072134 55 336 3.0 3.0 0.00 0.00 0.00 57 1002.4
20240414071632 55 338 2.0 2.0 0.00 0.00 0.00 57 1002.0
20240414071132 55 321 2.0 2.0 0.00 0.00 0.00 57 1002.1
20240414070632 55 331 1.0 2.0 0.00 0.00 0.00 57 1002.1
20240414070130 56 336 3.0 3.0 0.00 0.00 0.00 56 1001.9
20240414065628 56 344 2.0 3.0 0.00 0.00 0.00 56 1001.6
20240414065128 56 9 2.0 2.0 0.00 0.00 0.00 56 1001.7
20240414064625 57 348 2.0 2.0 0.00 0.00 0.00 56 1001.6
20240414064124 57 349 2.0 2.0 0.00 0.00 0.00 55 1001.6
20240414063623 57 1 3.0 3.0 0.00 0.00 0.00 55 1001.6
20240414063121 58 355 1.0 2.0 0.00 0.00 0.00 54 1001.7
20240414062619 58 11 1.0 2.0 0.00 0.00 0.00 53 1001.5
20240414062119 59 351 3.0 3.0 0.00 0.00 0.00 53 1001.9
20240414061618 59 335 3.0 3.0 0.00 0.00 0.00 52 1001.6
20240414061117 59 345 5.0 8.0 0.00 0.00 0.00 52 1001.3
20240414060614 60 353 2.0 2.0 0.00 0.00 0.00 52 1001.0
20240414060113 60 346 2.0 2.0 0.00 0.00 0.00 52 1001.3
20240414055612 60 4 4.0 5.0 0.00 0.00 0.00 51 1000.9
20240414055112 60 348 3.0 3.0 0.00 0.00 0.00 51 1001.0
20240414054611 61 351 3.0 3.0 0.00 0.00 0.00 51 1001.0
20240414054109 61 29 1.0 2.0 0.00 0.00 0.00 52 1001.3
20240414053607 62 52 2.0 2.0 0.00 0.00 0.00 51 1001.1
20240414053105 62 5 2.0 2.0 0.00 0.00 0.00 51 1001.0
20240414052605 62 13 3.0 3.0 0.00 0.00 0.00 50 1000.7
20240414052103 62 11 2.0 3.0 0.00 0.00 0.00 50 1000.7
20240414051601 63 340 4.0 7.0 0.00 0.00 0.00 50 1000.6
20240414051100 63 322 4.0 5.0 0.00 0.00 0.00 51 1000.5
20240414050558 64 10 4.0 5.0 0.00 0.00 0.00 49 1000.3
20240414050058 64 0 4.0 6.0 0.00 0.00 0.00 48 999.9
20240414045557 64 76 4.0 5.0 0.00 0.00 0.00 49 1000.2
20240414045055 65 355 5.0 6.0 0.00 0.00 0.00 53 1000.2
20240414044554 65 354 5.0 6.0 0.00 0.00 0.00 54 999.9
20240414044053 66 10 4.0 5.0 0.00 0.00 0.00 54 999.9
20240414043552 66 24 4.0 6.0 0.00 0.00 0.00 53 999.8
20240414043052 67 23 5.0 7.0 0.00 0.00 0.00 52 999.7
20240414042551 67 338 5.0 6.0 0.00 0.00 0.00 52 999.6
20240414042049 68 0 6.0 8.0 0.00 0.00 0.00 52 999.5
20240414041550 69 345 7.0 8.0 0.00 0.00 0.00 50 999.4
20240414041048 69 323 4.0 6.0 0.00 0.00 0.00 48 999.5
20240414040547 69 330 2.0 2.0 0.00 0.00 0.00 48 999.1
20240414040046 68 309 2.0 2.0 0.00 0.00 0.00 49 999.1
20240414035545 68 266 0.0 0.0 0.00 0.00 0.00 50 998.9
20240414035043 68 265 0.0 0.0 0.00 0.00 0.00 49 998.8
20240414034541 68 259 0.0 0.0 0.00 0.00 0.00 49 998.8
20240414034040 68 259 0.0 0.0 0.00 0.00 0.00 49 998.9
20240414033540 69 260 0.0 0.0 0.00 0.00 0.00 47 998.7
20240414033040 69 260 0.0 0.0 0.00 0.00 0.00 47 998.9
20240414032538 69 259 0.0 0.0 0.00 0.00 0.00 47 998.7
20240414032036 70 259 0.0 0.0 0.00 0.00 0.00 46 999.0
20240414031535 70 259 0.0 0.0 0.00 0.00 0.00 45 998.9
20240414031036 70 259 1.0 2.0 0.00 0.00 0.00 45 998.9
20240414030535 72 260 0.0 0.0 0.00 0.00 0.00 43 999.1
20240414030034 73 260 0.0 0.0 0.00 0.00 0.00 42 998.8
20240414025533 73 259 1.0 1.0 0.00 0.00 0.00 41 998.8
20240414025031 73 258 0.0 0.0 0.00 0.00 0.00 41 998.9
20240414024530 74 241 2.0 2.0 0.00 0.00 0.00 39 998.8
20240414024028 74 270 2.0 3.0 0.00 0.00 0.00 40 999.0
20240414023526 73 255 1.0 1.0 0.00 0.00 0.00 41 999.0
20240414023027 73 274 0.0 1.0 0.00 0.00 0.00 41 999.0
20240414022527 74 262 1.0 1.0 0.00 0.00 0.00 40 998.9
20240414022026 75 303 2.0 3.0 0.00 0.00 0.00 41 999.0
20240414021524 75 315 0.0 0.0 0.00 0.00 0.00 38 998.9
20240414021024 75 303 4.0 5.0 0.00 0.00 0.00 38 998.8
20240414020524 76 238 1.0 1.0 0.00 0.00 0.00 37 998.5
20240414020023 76 227 0.0 0.0 0.00 0.00 0.00 37 998.4
20240414015522 77 229 0.0 1.0 0.00 0.00 0.00 36 998.3
20240414015020 77 234 2.0 3.0 0.00 0.00 0.00 36 998.4
20240414014520 77 216 2.0 2.0 0.00 0.00 0.00 36 998.4
20240414014018 77 232 2.0 2.0 0.00 0.00 0.00 35 998.3
20240414013518 78 219 1.0 2.0 0.00 0.00 0.00 35 998.1
20240414013018 78 226 0.0 1.0 0.00 0.00 0.00 34 998.5
20240414012517 79 226 1.0 2.0 0.00 0.00 0.00 33 998.4
20240414012016 79 238 3.0 3.0 0.00 0.00 0.00 33 998.5
20240414011516 79 236 3.0 3.0 0.00 0.00 0.00 32 998.4
20240414011014 80 238 1.0 1.0 0.00 0.00 0.00 32 998.5
20240414010514 80 240 2.0 2.0 0.00 0.00 0.00 32 998.5
20240414010012 80 235 1.0 1.0 0.00 0.00 0.00 31 998.5
20240414005511 81 208 2.0 3.0 0.00 0.00 0.00 31 998.4
20240414005011 81 257 4.0 5.0 0.00 0.00 0.00 30 998.6
20240414004510 82 211 3.0 3.0 0.00 0.00 0.00 30 998.5
20240414004009 82 275 3.0 3.0 0.00 0.00 0.00 30 998.6
20240414003509 82 239 4.0 5.0 0.00 0.00 0.00 29 998.6
20240414003009 82 235 3.0 3.0 0.00 0.00 0.00 29 998.8
20240414002507 83 180 5.0 7.0 0.00 0.00 0.00 29 998.6
20240414002005 83 226 4.0 6.0 0.00 0.00 0.00 29 998.7
20240414001505 83 261 2.0 2.0 0.00 0.00 0.00 30 998.7
20240414001004 83 265 3.0 3.0 0.00 0.00 0.00 30 998.7
20240414000502 83 207 6.0 8.0 0.00 0.00 0.00 29 998.9
20240414000001 84 251 1.0 2.0 0.00 0.00 0.00 30 998.8
20240413235459 83 235 2.0 3.0 0.00 0.00 0.00 30 998.9
20240413234958 84 267 3.0 3.0 0.00 0.00 0.00 31 998.9
20240413234457 84 191 3.0 3.0 0.00 0.00 0.00 31 999.0
20240413233957 84 260 3.0 5.0 0.00 0.00 0.00 31 999.1
20240413233457 85 215 3.0 3.0 0.00 0.00 0.00 30 999.1
20240413232955 85 220 4.0 8.0 0.00 0.00 0.00 31 999.1
20240413232453 85 195 3.0 3.0 0.00 0.00 0.00 32 999.1
20240413231951 84 219 4.0 5.0 0.00 0.00 0.00 31 999.2
20240413231451 84 246 4.0 5.0 0.00 0.00 0.00 31 999.4
20240413230950 86 196 3.0 3.0 0.00 0.00 0.00 31 999.2
20240413230448 85 236 3.0 5.0 0.00 0.00 0.00 31 999.2
20240413225948 84 199 8.0 11.0 0.00 0.00 0.00 32 999.2
20240413225447 85 264 2.0 3.0 0.00 0.00 0.00 33 999.6
20240413224945 84 179 4.0 5.0 0.00 0.00 0.00 33 999.4
20240413224443 83 273 4.0 6.0 0.00 0.00 0.00 35 999.4
20240413223942 82 161 2.0 2.0 0.00 0.00 0.00 36 999.6
20240413223441 82 258 2.0 2.0 0.00 0.00 0.00 35 999.8
20240413222940 83 251 2.0 3.0 0.00 0.00 0.00 35 999.7
20240413222438 83 214 7.0 8.0 0.00 0.00 0.00 35 1000.0
20240413221937 82 262 6.0 8.0 0.00 0.00 0.00 35 1000.0
20240413221437 82 220 9.0 14.0 0.00 0.00 0.00 35 999.9
20240413220936 82 183 1.0 3.0 0.00 0.00 0.00 37 1000.1
20240413220435 82 233 3.0 5.0 0.00 0.00 0.00 36 999.6
20240413215935 82 229 1.0 1.0 0.00 0.00 0.00 37 999.8
20240413215432 82 174 2.0 3.0 0.00 0.00 0.00 38 999.8
20240413214930 82 191 5.0 6.0 0.00 0.00 0.00 37 999.9
20240413214426 83 223 6.0 8.0 0.00 0.00 0.00 35 1000.2
20240413213926 83 192 3.0 5.0 0.00 0.00 0.00 37 1000.2
20240413213426 83 206 5.0 6.0 0.00 0.00 0.00 36 1000.6
20240413212925 82 144 4.0 6.0 0.00 0.00 0.00 37 1000.7
20240413212424 81 159 5.0 6.0 0.00 0.00 0.00 38 1000.7
20240413211924 80 203 4.0 6.0 0.00 0.00 0.00 38 1001.0
20240413211423 80 195 1.0 1.0 0.00 0.00 0.00 38 1001.1
20240413210922 81 162 7.0 9.0 0.00 0.00 0.00 37 1001.5
20240413210422 81 202 6.0 8.0 0.00 0.00 0.00 38 1001.8
20240413205922 81 292 8.0 9.0 0.00 0.00 0.00 37 1001.9
20240413205420 81 202 6.0 9.0 0.00 0.00 0.00 37 1002.1
20240413204918 81 228 9.0 10.0 0.00 0.00 0.00 36 1002.2
20240413204417 80 197 10.0 15.0 0.00 0.00 0.00 37 1002.3
20240413203917 82 257 2.0 2.0 0.00 0.00 0.00 37 1002.5
20240413203417 82 178 3.0 3.0 0.00 0.00 0.00 36 1002.5
20240413202915 81 244 3.0 5.0 0.00 0.00 0.00 36 1002.2
20240413202413 81 211 8.0 10.0 0.00 0.00 0.00 36 1002.6
20240413201912 81 199 7.0 9.0 0.00 0.00 0.00 35 1002.7
20240413201410 81 193 5.0 6.0 0.00 0.00 0.00 35 1002.7
20240413200909 81 253 5.0 7.0 0.00 0.00 0.00 36 1003.1
20240413200408 80 215 8.0 10.0 0.00 0.00 0.00 35 1003.0
20240413195907 80 179 7.0 9.0 0.00 0.00 0.00 36 1003.0
20240413195406 80 260 5.0 6.0 0.00 0.00 0.00 35 1003.1
20240413194904 80 196 6.0 8.0 0.00 0.00 0.00 35 1003.0
20240413194403 80 232 7.0 8.0 0.00 0.00 0.00 34 1003.2
20240413193901 78 155 3.0 3.0 0.00 0.00 0.00 35 1003.2
20240413193359 79 198 5.0 7.0 0.00 0.00 0.00 34 1003.3
20240413192858 79 179 10.0 15.0 0.00 0.00 0.00 33 1003.7
20240413192357 78 283 9.0 13.0 0.00 0.00 0.00 34 1003.7
20240413191856 77 174 7.0 9.0 0.00 0.00 0.00 33 1004.1
20240413191355 77 82 5.0 7.0 0.00 0.00 0.00 33 1004.1
20240413190855 76 210 6.0 7.0 0.00 0.00 0.00 34 1004.5
20240413190354 76 210 7.0 8.0 0.00 0.00 0.00 34 1004.6
20240413185853 75 197 3.0 5.0 0.00 0.00 0.00 35 1004.6
20240413185352 74 186 6.0 8.0 0.00 0.00 0.00 35 1004.7
20240413184849 74 140 7.0 9.0 0.00 0.00 0.00 34 1005.0
20240413184347 74 220 7.0 10.0 0.00 0.00 0.00 35 1005.1
20240413183847 73 227 4.0 6.0 0.00 0.00 0.00 35 1005.3
20240413183347 74 129 5.0 6.0 0.00 0.00 0.00 35 1005.2
20240413182845 73 192 3.0 5.0 0.00 0.00 0.00 37 1005.7
20240413182344 72 221 5.0 7.0 0.00 0.00 0.00 36 1005.8
20240413181843 72 163 5.0 7.0 0.00 0.00 0.00 35 1005.7
20240413181342 71 150 4.0 6.0 0.00 0.00 0.00 35 1006.2
20240413180840 71 129 7.0 10.0 0.00 0.00 0.00 36 1006.3
20240413180339 71 231 4.0 5.0 0.00 0.00 0.00 36 1006.5
20240413175837 71 118 7.0 10.0 0.00 0.00 0.00 36 1006.3
20240413175336 71 219 4.0 6.0 0.00 0.00 0.00 35 1006.4
20240413174835 70 197 4.0 5.0 0.00 0.00 0.00 36 1006.7
20240413174335 70 145 8.0 9.0 0.00 0.00 0.00 35 1006.8
20240413173833 69 180 11.0 15.0 0.00 0.00 0.00 34 1007.0
20240413173332 70 179 5.0 7.0 0.00 0.00 0.00 35 1007.1
20240413172832 70 179 5.0 8.0 0.00 0.00 0.00 34 1007.2
20240413172331 69 147 5.0 6.0 0.00 0.00 0.00 36 1007.4
20240413171829 70 214 5.0 6.0 0.00 0.00 0.00 35 1007.6
20240413171327 69 175 5.0 6.0 0.00 0.00 0.00 35 1007.5
20240413170825 68 184 4.0 5.0 0.00 0.00 0.00 37 1007.7
20240413170322 68 137 5.0 7.0 0.00 0.00 0.00 36 1007.5
20240413165821 67 191 7.0 8.0 0.00 0.00 0.00 36 1007.8
20240413165319 67 189 6.0 8.0 0.00 0.00 0.00 38 1007.8
20240413164817 67 151 5.0 7.0 0.00 0.00 0.00 37 1008.2
20240413164316 67 178 5.0 6.0 0.00 0.00 0.00 37 1008.2
20240413163815 66 174 7.0 10.0 0.00 0.00 0.00 38 1008.5
20240413163314 65 166 10.0 14.0 0.00 0.00 0.00 38 1008.5
20240413162813 65 143 6.0 10.0 0.00 0.00 0.00 40 1008.7
20240413162312 64 188 5.0 6.0 0.00 0.00 0.00 39 1008.9
20240413161811 64 104 3.0 5.0 0.00 0.00 0.00 40 1009.2
20240413161310 64 127 5.0 7.0 0.00 0.00 0.00 40 1009.2
20240413160810 63 101 7.0 8.0 0.00 0.00 0.00 40 1009.5
20240413160309 63 161 5.0 6.0 0.00 0.00 0.00 40 1009.5
20240413155808 62 144 6.0 9.0 0.00 0.00 0.00 41 1009.6
20240413155306 62 177 6.0 7.0 0.00 0.00 0.00 42 1009.7
20240413154804 62 184 6.0 8.0 0.00 0.00 0.00 42 1010.0
20240413154301 62 180 6.0 7.0 0.00 0.00 0.00 41 1010.0
20240413153802 62 170 5.0 6.0 0.00 0.00 0.00 42 1010.3
20240413153301 60 173 4.0 5.0 0.00 0.00 0.00 43 1010.0
20240413152800 61 129 3.0 6.0 0.00 0.00 0.00 42 1010.4
20240413152259 61 103 5.0 6.0 0.00 0.00 0.00 41 1010.3
20240413151800 60 180 5.0 8.0 0.00 0.00 0.00 43 1010.4
20240413151258 60 186 4.0 6.0 0.00 0.00 0.00 43 1010.5
20240413150758 60 142 6.0 8.0 0.00 0.00 0.00 43 1010.5
20240413150257 59 224 3.0 3.0 0.00 0.00 0.00 44 1010.4
20240413145756 59 89 8.0 11.0 0.00 0.00 0.00 46 1010.3
20240413145256 58 176 4.0 5.0 0.00 0.00 0.00 46 1010.4
20240413144754 58 160 8.0 10.0 0.00 0.00 0.00 45 1010.6
20240413144253 57 152 6.0 7.0 0.00 0.00 0.00 47 1010.7
20240413143752 57 161 5.0 7.0 0.00 0.00 0.00 46 1010.9
20240413143251 57 188 5.0 7.0 0.00 0.00 0.00 47 1011.1
20240413142749 56 157 6.0 7.0 0.00 0.00 0.00 47 1011.5
20240413142249 55 173 5.0 6.0 0.00 0.00 0.00 48 1011.6
20240413141748 55 166 7.0 9.0 0.00 0.00 0.00 48 1011.7
20240413141248 55 125 6.0 7.0 0.00 0.00 0.00 49 1011.8
20240413140747 55 127 7.0 8.0 0.00 0.00 0.00 50 1011.8
20240413140246 54 175 3.0 3.0 0.00 0.00 0.00 51 1012.1
20240413135746 53 106 3.0 3.0 0.00 0.00 0.00 53 1012.5
20240413135246 53 166 2.0 2.0 0.00 0.00 0.00 54 1012.4
20240413134744 53 148 5.0 6.0 0.00 0.00 0.00 53 1012.6
20240413134243 52 164 4.0 5.0 0.00 0.00 0.00 55 1012.4
20240413133741 51 154 6.0 7.0 0.00 0.00 0.00 55 1012.7
20240413133240 51 164 3.0 3.0 0.00 0.00 0.00 56 1012.7
20240413132739 50 128 5.0 7.0 0.00 0.00 0.00 57 1012.9
20240413132238 50 173 4.0 5.0 0.00 0.00 0.00 59 1012.6
20240413131737 49 171 5.0 6.0 0.00 0.00 0.00 58 1012.9
20240413131235 49 177 5.0 7.0 0.00 0.00 0.00 59 1013.0
20240413130734 48 119 4.0 6.0 0.00 0.00 0.00 60 1013.1
20240413130232 48 181 3.0 3.0 0.00 0.00 0.00 61 1012.9
20240413125731 48 158 3.0 3.0 0.00 0.00 0.00 62 1013.1
20240413125230 47 154 2.0 2.0 0.00 0.00 0.00 63 1013.5
20240413124730 46 159 2.0 2.0 0.00 0.00 0.00 65 1013.4
20240413124229 46 140 2.0 2.0 0.00 0.00 0.00 64 1013.4
20240413123729 45 164 2.0 2.0 0.00 0.00 0.00 65 1013.5
20240413123228 45 164 3.0 3.0 0.00 0.00 0.00 66 1013.6
20240413122727 44 141 2.0 2.0 0.00 0.00 0.00 68 1013.8
20240413122227 43 193 1.0 1.0 0.00 0.00 0.00 70 1013.5
20240413121726 42 229 1.0 2.0 0.00 0.00 0.00 73 1013.6
20240413121226 41 246 1.0 1.0 0.00 0.00 0.00 76 1013.5
20240413120725 40 247 0.0 1.0 0.00 0.00 0.00 77 1013.7
20240413120222 40 247 1.0 1.0 0.00 0.00 0.00 78 1013.6
20240413115720 39 247 1.0 1.0 0.00 0.00 0.00 80 1013.6
20240413115220 39 247 1.0 1.0 0.00 0.00 0.00 80 1013.7
20240413114719 39 247 1.0 1.0 0.00 0.00 0.00 82 1013.6
20240413114218 39 248 0.0 0.0 0.00 0.00 0.00 82 1013.8
20240413113718 39 247 0.0 1.0 0.00 0.00 0.00 81 1013.8
20240413113216 38 247 1.0 1.0 0.00 0.00 0.00 82 1013.6
20240413112716 38 255 0.0 0.0 0.00 0.00 0.00 83 1013.6
20240413112215 39 254 0.0 1.0 0.00 0.00 0.00 83 1013.6
20240413111713 39 254 0.0 0.0 0.00 0.00 0.00 82 1013.8
20240413111212 39 255 0.0 0.0 0.00 0.00 0.00 83 1014.0
20240413110712 39 254 0.0 0.0 0.00 0.00 0.00 83 1014.1
20240413110210 39 254 1.0 1.0 0.00 0.00 0.00 83 1013.9
20240413105708 38 255 0.0 1.0 0.00 0.00 0.00 84 1014.1
20240413105208 38 255 0.0 0.0 0.00 0.00 0.00 84 1014.2
20240413104706 38 254 0.0 0.0 0.00 0.00 0.00 85 1014.2
20240413104204 38 254 0.0 0.0 0.00 0.00 0.00 87 1014.2
20240413103702 38 255 0.0 0.0 0.00 0.00 0.00 86 1014.2
20240413103201 38 255 0.0 0.0 0.00 0.00 0.00 86 1014.2
20240413102659 38 255 0.0 0.0 0.00 0.00 0.00 85 1014.2
20240413102158 38 255 0.0 0.0 0.00 0.00 0.00 84 1014.2
20240413101656 39 255 0.0 0.0 0.00 0.00 0.00 83 1014.3
20240413101154 39 254 0.0 1.0 0.00 0.00 0.00 82 1014.4
20240413100653 39 254 1.0 1.0 0.00 0.00 0.00 82 1014.4
20240413100153 39 254 1.0 1.0 0.00 0.00 0.00 82 1014.3
20240413095651 39 254 1.0 1.0 0.00 0.00 0.00 82 1014.5
20240413095151 39 254 1.0 1.0 0.00 0.00 0.00 82 1014.4
20240413094650 39 311 1.0 1.0 0.00 0.00 0.00 82 1014.3
20240413094148 39 312 0.0 0.0 0.00 0.00 0.00 82 1014.6
20240413093647 39 312 0.0 0.0 0.00 0.00 0.00 83 1014.5
20240413093144 39 312 0.0 0.0 0.00 0.00 0.00 83 1014.7
20240413092644 39 312 0.0 1.0 0.00 0.00 0.00 85 1014.5
20240413092141 39 312 0.0 0.0 0.00 0.00 0.00 86 1014.7
20240413091641 38 312 0.0 0.0 0.00 0.00 0.00 88 1014.7
20240413091140 38 312 0.0 0.0 0.00 0.00 0.00 86 1014.5
20240413090640 38 312 0.0 0.0 0.00 0.00 0.00 85 1014.8
20240413090139 39 312 0.0 0.0 0.00 0.00 0.00 85 1014.5
20240413085639 38 312 0.0 0.0 0.00 0.00 0.00 83 1014.3
20240413085137 39 312 0.0 0.0 0.00 0.00 0.00 82 1014.6